默认 日期 大小 文件数 浏览量 最新下载 xml
endless磁力链接相关资源由用户搜索指令自动获取,结果来源于网络,本站不存储任何资料,亦不承担任何责任,请于24小时内删除,搜索到5775个磁力,显示前4000条数据,用时5ms。
    ... .x264.DTS-HD.Ma.NorTaleNorSub-Endless.mkv": 10317567614, "Askeladden i Soria ...
创建时间: 2020-01-25 16:16:52 大小:9.61 GB 文件数量:3 热度:7 最近下载:2025-09-17 12:53:08
    {"Redist": {"Net.exe": 889416, "vcredist_x64_2010.exe": 5727343}, "Icon.ico": 38078, "data1.bin": 487401982, "data2.bin": 620835669, "data3.bin": 341919693, "data4.bin": 12139234, "setup.exe": 1444277, "autorun.inf": 62}
创建时间: 2020-01-25 02:55:11 大小:1.37 GB 文件数量:9 热度:2 最近下载:2022-04-10 06:05:16
    {"02-Wings Of Love.mp3": 9246720, "01-Endless Circle.mp3": 8425567, "Endless Circle_back.jpg": 589740, "Endless Circle_front.jpg": 720885, "03-Endless Circle (Maxi Version).mp3": 14843904}
创建时间: 2020-01-25 01:36:20 大小:32.26 MB 文件数量:5 热度:2 最近下载:2022-04-10 05:45:02
    {"cover.jpg": 272693, "4. Palisded - Nightwaves.mp3": 7655230, "6. Palisded - City Limits.mp3": 10925760, "5. Palisded - Future Visions.mp3": 11007263, "1. OMEGA Danzer - Cosmic Club.mp3": 18434397, "3. OMEGA Danzer - Sleepless Nights.mp3": 11707344, "read ...
创建时间: 2020-01-24 22:49:14 大小:74.98 MB 文件数量:8 热度:3 最近下载:2022-04-10 06:07:40
创建时间: 2020-01-24 18:30:50 大小:1.64 GB 文件数量:6 热度:3 最近下载:2022-04-10 05:41:25
    ... -BLiTZCRiEG.mp4": 1398091777, "Endless.Love.2014.BRRiP.H264.AAC ... BLiTZCRiEG.Danish.srt": 101653, "Endless.Love.2014.BRRiP.H264.AAC ... .French.srt": 103594, "Endless.Love.2014.BRRiP.H264.AAC ... BLiTZCRiEG.English.srt": 108121, "Endless.Love.2014.BRRiP.H264.AAC ...
创建时间: 2020-01-24 06:55:44 大小:1.3 GB 文件数量:6 热度:3 最近下载:2022-04-09 07:18:51
    {"Endless Love 2014 HDRIP x264 AC3 TiTAN.mkv": 1314776284, "Endless Love 2014 HDRIP x264 AC3 TiTAN.nfo": 3342}
创建时间: 2020-01-23 12:36:55 大小:1.22 GB 文件数量:2 热度:5 最近下载:2025-04-18 22:52:02
    ... , "06. Together.mp3": 12516432, "02. Endless Storm.mp3": 9896883, "05. Feed ...
创建时间: 2020-01-22 19:48:45 大小:108.94 MB 文件数量:18 热度:5 最近下载:2025-03-29 01:43:02
    {"ELFPKX64157S3-ALI213.part1.rar": 1048576000, "ELFPKX64157S3-ALI213.part2.rar": 1048576000, "ELFPKX64157S3-ALI213.part3.rar": 1048576000, "ELFPKX64157S3-ALI213.part4.rar": 858801339}
创建时间: 2020-01-22 13:46:02 大小:3.73 GB 文件数量:4 热度:7 最近下载:2022-04-09 06:13:26
    {"Endless.Love.txt": 71, "Endless.Love.BDRip.XviD-COCAIN.mp4": 728709348}
创建时间: 2020-01-22 01:53:23 大小:694.95 MB 文件数量:2 热度:3 最近下载:2022-04-09 06:09:33
    ... .jpg": 193216, "2.jpg": 105180}, "Endless Poetry 2016 - Cover.jpg": 203885 ... ": 2690536820, "Comment Jouer au film Endless.Poetry.2016.HD.Blu.Ray ... ": 800, "Comment Jouer au film Endless.Poetry.2016.HD.Blu.Ray ...
创建时间: 2020-01-21 22:02:50 大小:2.54 GB 文件数量:7 热度:4 最近下载:2024-12-25 03:33:01
    ... the Earth.m4a": 10584262, "13 Endless Love Suite.m4a": 9014427, "02 ... .mp3": 9875208, "03 All Our Endless Love (feat. Matt.m4a": 8327305 ... Love.mp3": 8220281}, "Various Artists - Endless Love (Original Motion Picture Soundtrack ...
创建时间: 2020-01-21 20:11:47 大小:131.57 MB 文件数量:17 热度:3 最近下载:2022-04-09 06:24:01
    {"Endless shooting with Aki-nee.mp4": 269076938, "Endless shooting with Aki-nee - nurse.mp4": 271163781}
创建时间: 2020-01-21 18:00:37 大小:515.21 MB 文件数量:2 热度:40 最近下载:2025-09-16 19:22:05
    {"Cover.jpg": 59956, "07. R-Em.mp3": 10850910, "02. Epoch.mp3": 16723239, "04. Evoke.mp3": 12779794, "03. Tempest.mp3": 14885267, "11. Obsidian.mp3": 17418103, "01. Precipice.mp3": 3758153, "08. Awakening.mp3": 14556128, "09. Return to.mp3": 2026757, "05. ...
创建时间: 2020-01-21 15:25:49 大小:137.87 MB 文件数量:14 热度:9 最近下载:2025-09-21 15:55:03
    {"93号仓库.url": 410, "93影视~看过都说好.url": 309, "Endless Nights In Aurora.2014.HR-HDTV-93side.mkv": 684256417}
创建时间: 2020-01-21 12:28:48 大小:652.56 MB 文件数量:3 热度:6 最近下载:2025-09-15 16:44:07
    ... II.flac": 34849990, "FlybyNo - Endless Legend Soundtrack - 29 Assimilate (Cultists ... ).flac": 23646346, "FlybyNo - Endless Legend Soundtrack - 09 Zolya (Vaulters ... Theme).flac": 9350685, "FlybyNo - Endless Legend Soundtrack - 28 Nomadic Cities ...
创建时间: 2020-01-19 23:09:39 大小:1.01 GB 文件数量:33 热度:4 最近下载:2022-04-09 07:19:13
    {"Info": {"Info.Endless Space.Emperor Special Edition.v ...
创建时间: 2020-01-19 23:07:31 大小:839.49 MB 文件数量:9 热度:5 最近下载:2025-01-09 13:53:11
    ... .mp3": 11035594, "00. Donna Summer - Endless Summer.SFV": 1560, "00. Donna ... Summer - Endless Summer.nfo": 2541, "17. This ...
创建时间: 2020-01-19 22:54:29 大小:165.92 MB 文件数量:23 热度:4 最近下载:2022-04-09 07:17:22
    ... with姬宮~痴女endless Lewd Party(PJD002).avi": 1231953408 ...
创建时间: 2020-01-19 16:43:49 大小:1.21 GB 文件数量:269 热度:30 最近下载:2024-08-31 18:59:02
    {"04 Sum.m4a": 25290865, "05 Skins.m4a": 14960887, "06 Unsung.m4a": 4997306, "07 Anisina.m4a": 19975509, "15 Calling.m4a": 19357314, "17 Surfacing.m4a": 19704172, "12 Autumn '68.m4a": 8880495, "10 Night Light.m4a": 8842503, "03 Ebb And Flow.m4a": 8321604, ...
创建时间: 2020-01-19 07:31:05 大小:291.33 MB 文件数量:18 热度:4 最近下载:2022-04-08 06:38:31